Time;durP1;ratioP1;P1;durP2;ratioP2;P2;SDS_P1;SDS_P2;PMS_P1;PMS_P2;Temp;Humidity;BMP_temperature;BMP_pressure;BME280_temperature;BME280_humidity;BME280_pressure;Samples;Min_cycle;Max_cycle;Signal;HPM_P1;HPM_P2
2023/12/31 00:01:57;;;;;;;69.05;26.70;;;;;;;;;;6266456;28;20056;-64
2023/12/31 00:04:58;;;;;;;88.72;31.45;;;;;;;;;;6267213;28;21394;-63
2023/12/31 00:07:59;;;;;;;90.07;32.65;;;;;;;;;;6273379;28;20048;-64
2023/12/31 00:11:00;;;;;;;101.90;35.40;;;;;;;;;;6266323;28;20052;-64
2023/12/31 00:14:02;;;;;;;87.13;31.50;;;;;;;;;;6264990;28;20087;-64
2023/12/31 00:17:03;;;;;;;104.35;37.97;;;;;;;;;;6268083;28;20094;-64
2023/12/31 00:20:04;;;;;;;102.72;38.72;;;;;;;;;;6263981;28;20099;-66
2023/12/31 00:23:05;;;;;;;86.53;32.60;;;;;;;;;;6262278;28;20052;-64
2023/12/31 00:26:06;;;;;;;99.53;36.40;;;;;;;;;;6266429;28;21154;-64
2023/12/31 00:29:07;;;;;;;90.40;34.67;;;;;;;;;;6266478;28;20063;-64
2023/12/31 00:32:07;;;;;;;88.30;35.10;;;;;;;;;;6265515;28;20052;-64
2023/12/31 00:35:08;;;;;;;88.28;32.53;;;;;;;;;;6266853;28;20106;-64
2023/12/31 00:38:08;;;;;;;84.63;31.90;;;;;;;;;;6249305;28;20381;-64
2023/12/31 00:41:09;;;;;;;79.35;31.52;;;;;;;;;;6268757;28;20131;-64
2023/12/31 00:44:10;;;;;;;75.13;31.08;;;;;;;;;;6273238;28;20070;-65
2023/12/31 00:47:11;;;;;;;70.57;30.85;;;;;;;;;;6265474;28;20122;-65
2023/12/31 00:50:11;;;;;;;73.68;30.98;;;;;;;;;;6261727;28;20053;-64
2023/12/31 00:53:12;;;;;;;128.45;46.40;;;;;;;;;;6280463;28;20544;-64
2023/12/31 00:56:13;;;;;;;100.97;36.85;;;;;;;;;;6280063;28;20052;-63
2023/12/31 00:59:14;;;;;;;118.18;41.53;;;;;;;;;;6286709;28;20083;-64
2023/12/31 01:02:14;;;;;;;114.78;40.10;;;;;;;;;;6286904;28;20053;-63
2023/12/31 01:05:15;;;;;;;92.75;33.13;;;;;;;;;;6289483;28;20063;-64
2023/12/31 01:08:16;;;;;;;76.88;30.75;;;;;;;;;;6289929;28;20053;-64
2023/12/31 01:11:17;;;;;;;94.35;33.60;;;;;;;;;;6287712;28;20140;-64
2023/12/31 01:14:17;;;;;;;74.55;29.95;;;;;;;;;;6288751;28;20051;-64
2023/12/31 01:17:18;;;;;;;87.95;33.58;;;;;;;;;;6289851;28;20410;-64
2023/12/31 01:20:19;;;;;;;81.65;29.35;;;;;;;;;;6280823;28;20431;-64
2023/12/31 01:23:20;;;;;;;73.60;27.40;;;;;;;;;;6287340;28;20040;-64
2023/12/31 01:26:20;;;;;;;68.85;29.15;;;;;;;;;;6287654;28;20055;-65
2023/12/31 01:29:21;;;;;;;79.93;30.83;;;;;;;;;;6287167;28;20130;-64
2023/12/31 01:32:21;;;;;;;84.78;31.27;;;;;;;;;;6286566;28;20049;-64
2023/12/31 01:35:22;;;;;;;75.35;30.42;;;;;;;;;;6287216;28;20057;-64
2023/12/31 01:38:23;;;;;;;87.05;29.80;;;;;;;;;;6289139;28;20132;-64
2023/12/31 01:41:24;;;;;;;90.00;35.17;;;;;;;;;;6285469;28;20076;-64
2023/12/31 01:44:27;;;;;;;87.30;30.73;;;;;;;;;;6286295;28;20053;-65
2023/12/31 01:47:29;;;;;;;97.63;29.35;;;;;;;;;;6288418;28;20050;-65
2023/12/31 01:50:31;;;;;;;86.90;32.65;;;;;;;;;;6283088;28;21019;-64
2023/12/31 01:53:32;;;;;;;96.20;37.45;;;;;;;;;;6282226;28;20050;-65
2023/12/31 01:56:36;;;;;;;92.90;33.83;;;;;;;;;;6287600;28;20037;-64
2023/12/31 01:59:38;;;;;;;139.27;29.95;;;;;;;;;;6286915;28;20062;-65
2023/12/31 02:02:42;;;;;;;108.32;31.52;;;;;;;;;;6284677;28;20074;-65
2023/12/31 02:05:43;;;;;;;91.97;35.25;;;;;;;;;;6293335;28;20056;-65
2023/12/31 02:08:44;;;;;;;90.53;35.53;;;;;;;;;;6289245;28;20531;-65
2023/12/31 02:11:45;;;;;;;92.90;35.00;;;;;;;;;;6280542;28;20040;-64
2023/12/31 02:14:46;;;;;;;93.55;34.58;;;;;;;;;;6293166;28;20475;-64
2023/12/31 02:17:47;;;;;;;86.82;32.13;;;;;;;;;;6293323;28;20136;-66
2023/12/31 02:20:47;;;;;;;79.57;31.77;;;;;;;;;;6290628;28;20530;-65
2023/12/31 02:23:49;;;;;;;85.68;32.17;;;;;;;;;;6292765;28;20064;-65
2023/12/31 02:26:49;;;;;;;86.55;31.85;;;;;;;;;;6291807;28;20193;-65
2023/12/31 02:29:50;;;;;;;83.45;32.10;;;;;;;;;;6292634;28;20614;-64
2023/12/31 02:32:51;;;;;;;79.93;30.40;;;;;;;;;;6290499;28;20037;-65
2023/12/31 02:35:52;;;;;;;80.82;30.95;;;;;;;;;;6291175;28;20044;-66
2023/12/31 02:38:52;;;;;;;75.40;30.33;;;;;;;;;;6291838;28;20052;-65
2023/12/31 02:41:53;;;;;;;76.97;30.77;;;;;;;;;;6288876;28;20040;-66
2023/12/31 02:44:54;;;;;;;82.65;31.33;;;;;;;;;;6292642;28;20063;-65
2023/12/31 02:47:55;;;;;;;90.50;30.80;;;;;;;;;;6292627;28;20487;-65
2023/12/31 02:50:55;;;;;;;85.95;29.83;;;;;;;;;;6282974;28;20056;-64
2023/12/31 02:53:56;;;;;;;77.15;30.60;;;;;;;;;;6291046;28;20059;-65
2023/12/31 02:56:57;;;;;;;85.80;29.85;;;;;;;;;;6290913;28;20063;-65
2023/12/31 02:59:58;;;;;;;85.20;32.87;;;;;;;;;;6288099;28;20090;-64
2023/12/31 03:02:59;;;;;;;72.25;29.95;;;;;;;;;;6292649;28;20052;-64
2023/12/31 03:06:00;;;;;;;78.57;30.38;;;;;;;;;;6286821;28;20838;-65
2023/12/31 03:09:02;;;;;;;76.80;31.85;;;;;;;;;;6291193;28;20051;-65
2023/12/31 03:12:03;;;;;;;77.22;29.80;;;;;;;;;;6289344;28;20405;-65
2023/12/31 03:15:04;;;;;;;74.93;28.63;;;;;;;;;;6287480;28;20524;-65
2023/12/31 03:18:05;;;;;;;71.03;28.23;;;;;;;;;;6292242;28;20040;-65
2023/12/31 03:21:05;;;;;;;74.05;29.42;;;;;;;;;;6290594;28;20381;-64
2023/12/31 03:24:07;;;;;;;73.00;28.67;;;;;;;;;;6291712;28;20049;-65
2023/12/31 03:27:09;;;;;;;72.10;27.52;;;;;;;;;;6291574;28;20411;-64
2023/12/31 03:30:10;;;;;;;74.93;29.75;;;;;;;;;;6291770;28;20389;-64
2023/12/31 03:33:10;;;;;;;74.28;28.70;;;;;;;;;;6290290;28;20053;-65
2023/12/31 03:36:11;;;;;;;71.45;28.08;;;;;;;;;;6291816;28;20076;-65
2023/12/31 03:39:12;;;;;;;69.30;27.48;;;;;;;;;;6290131;28;20045;-65
2023/12/31 03:42:13;;;;;;;77.47;28.08;;;;;;;;;;6289767;28;20133;-64
2023/12/31 03:45:13;;;;;;;69.20;27.58;;;;;;;;;;6291481;28;20427;-64
2023/12/31 03:48:14;;;;;;;67.50;28.13;;;;;;;;;;6291490;28;20106;-64
2023/12/31 03:51:15;;;;;;;69.93;28.33;;;;;;;;;;6290230;28;20060;-63
2023/12/31 03:54:15;;;;;;;66.50;26.92;;;;;;;;;;6291342;28;20045;-64
2023/12/31 03:57:16;;;;;;;65.88;27.73;;;;;;;;;;6292853;28;20044;-63
2023/12/31 04:00:20;;;;;;;63.80;26.10;;;;;;;;;;6288275;28;20106;-63
2023/12/31 04:03:20;;;;;;;74.15;28.13;;;;;;;;;;6286730;28;20040;-63
2023/12/31 04:06:22;;;;;;;69.15;28.80;;;;;;;;;;6292502;28;20148;-64
2023/12/31 04:09:23;;;;;;;71.10;28.13;;;;;;;;;;6290731;28;20056;-64
2023/12/31 04:12:24;;;;;;;66.63;28.17;;;;;;;;;;6289244;28;20492;-65
2023/12/31 04:15:25;;;;;;;67.78;28.45;;;;;;;;;;6289615;28;20044;-65
2023/12/31 04:18:26;;;;;;;68.45;28.30;;;;;;;;;;6288957;28;20072;-65
2023/12/31 04:21:26;;;;;;;68.82;27.58;;;;;;;;;;6288867;28;20063;-65
2023/12/31 04:24:28;;;;;;;62.63;26.35;;;;;;;;;;6291654;28;20080;-65
2023/12/31 04:27:31;;;;;;;63.35;26.73;;;;;;;;;;6290158;28;20411;-64
2023/12/31 04:30:31;;;;;;;64.68;25.85;;;;;;;;;;6287839;28;20484;-64
2023/12/31 04:33:32;;;;;;;68.47;26.75;;;;;;;;;;6289456;28;20051;-64
2023/12/31 04:36:33;;;;;;;76.65;27.70;;;;;;;;;;6290261;28;20399;-64
2023/12/31 04:39:34;;;;;;;84.80;30.17;;;;;;;;;;6287334;28;20064;-64
2023/12/31 04:42:35;;;;;;;190.60;37.08;;;;;;;;;;6288237;28;20163;-64
2023/12/31 04:45:35;;;;;;;134.50;34.20;;;;;;;;;;6289822;28;20056;-64
2023/12/31 04:48:37;;;;;;;187.57;40.38;;;;;;;;;;6289028;28;20057;-64
2023/12/31 04:51:37;;;;;;;179.90;40.17;;;;;;;;;;6288990;28;20052;-63
2023/12/31 04:54:39;;;;;;;205.77;48.55;;;;;;;;;;6289485;28;20091;-64
2023/12/31 04:57:40;;;;;;;195.13;46.58;;;;;;;;;;6290063;28;20048;-64
2023/12/31 05:00:42;;;;;;;380.63;52.55;;;;;;;;;;6283726;28;20040;-64
2023/12/31 05:03:45;;;;;;;323.38;51.83;;;;;;;;;;6287715;28;20521;-64
2023/12/31 05:06:46;;;;;;;207.10;47.20;;;;;;;;;;6289601;28;20071;-64
2023/12/31 05:09:46;;;;;;;298.73;48.25;;;;;;;;;;6289510;28;20044;-63
2023/12/31 05:12:47;;;;;;;251.90;48.95;;;;;;;;;;6286767;28;20052;-64
2023/12/31 05:15:47;;;;;;;303.10;52.63;;;;;;;;;;6289365;28;20048;-64
2023/12/31 05:18:53;;;;;;;248.55;40.70;;;;;;;;;;6287695;28;20068;-64
2023/12/31 05:21:53;;;;;;;214.50;42.13;;;;;;;;;;6287107;28;20045;-63
2023/12/31 05:24:54;;;;;;;200.40;44.15;;;;;;;;;;6288925;28;20163;-65
2023/12/31 05:27:55;;;;;;;164.23;41.75;;;;;;;;;;6289359;28;20526;-64
2023/12/31 05:30:55;;;;;;;116.75;42.00;;;;;;;;;;6287911;28;20055;-64
2023/12/31 05:33:56;;;;;;;134.98;41.03;;;;;;;;;;6288838;28;20436;-64
2023/12/31 05:36:57;;;;;;;125.22;42.75;;;;;;;;;;6289392;28;20187;-65
2023/12/31 05:39:57;;;;;;;149.90;43.85;;;;;;;;;;6287814;28;20052;-64
2023/12/31 05:42:58;;;;;;;119.55;44.35;;;;;;;;;;6286107;28;20072;-64
2023/12/31 05:46:00;;;;;;;172.32;46.42;;;;;;;;;;6287883;28;20044;-64
2023/12/31 05:49:02;;;;;;;166.35;45.42;;;;;;;;;;6289236;28;20051;-63
2023/12/31 05:52:05;;;;;;;137.40;41.20;;;;;;;;;;6286901;28;20187;-64
2023/12/31 05:55:06;;;;;;;141.75;41.17;;;;;;;;;;6289136;28;20058;-64
2023/12/31 05:58:07;;;;;;;125.85;42.00;;;;;;;;;;6290408;28;20044;-64
2023/12/31 06:01:08;;;;;;;104.28;39.13;;;;;;;;;;6287538;28;20051;-64
2023/12/31 06:04:08;;;;;;;114.15;41.80;;;;;;;;;;6287203;28;20051;-64
2023/12/31 06:07:09;;;;;;;104.40;39.00;;;;;;;;;;6290264;28;20061;-63
2023/12/31 06:10:10;;;;;;;111.93;40.90;;;;;;;;;;6287506;28;20048;-63
2023/12/31 06:13:11;;;;;;;100.95;37.47;;;;;;;;;;6285428;28;20040;-63
2023/12/31 06:16:12;;;;;;;108.65;39.45;;;;;;;;;;6290531;28;20047;-64
2023/12/31 06:19:12;;;;;;;94.78;36.78;;;;;;;;;;6288362;28;20040;-64
2023/12/31 06:22:13;;;;;;;91.55;35.75;;;;;;;;;;6285002;28;20063;-64
2023/12/31 06:25:14;;;;;;;89.00;33.20;;;;;;;;;;6289755;28;20423;-63
2023/12/31 06:28:15;;;;;;;78.63;30.25;;;;;;;;;;6289365;28;20048;-64
2023/12/31 06:31:17;;;;;;;87.18;32.80;;;;;;;;;;6287584;28;20059;-64
2023/12/31 06:34:18;;;;;;;87.00;33.67;;;;;;;;;;6285708;28;20045;-65
2023/12/31 06:37:19;;;;;;;84.30;32.40;;;;;;;;;;6288909;28;20112;-64
2023/12/31 06:40:19;;;;;;;91.32;35.33;;;;;;;;;;6286810;28;20483;-65
2023/12/31 06:43:20;;;;;;;80.40;32.90;;;;;;;;;;6287378;28;20454;-65
2023/12/31 06:46:21;;;;;;;94.75;35.50;;;;;;;;;;6288549;28;20087;-64
2023/12/31 06:49:22;;;;;;;81.75;32.65;;;;;;;;;;6289634;28;20052;-64
2023/12/31 06:52:22;;;;;;;89.85;33.65;;;;;;;;;;6290718;28;20052;-65
2023/12/31 06:55:23;;;;;;;77.85;31.50;;;;;;;;;;6291549;28;20143;-64
2023/12/31 06:58:24;;;;;;;75.28;30.55;;;;;;;;;;6292304;28;20052;-65
2023/12/31 07:01:25;;;;;;;77.60;29.52;;;;;;;;;;6291335;28;20076;-65
2023/12/31 07:04:26;;;;;;;78.78;31.52;;;;;;;;;;6290154;28;20055;-65
2023/12/31 07:07:27;;;;;;;83.15;32.10;;;;;;;;;;6291733;28;20060;-65
2023/12/31 07:10:27;;;;;;;77.03;30.90;;;;;;;;;;6291566;28;20102;-65
2023/12/31 07:13:28;;;;;;;72.65;29.48;;;;;;;;;;6290227;28;20988;-64
2023/12/31 07:16:29;;;;;;;73.88;31.90;;;;;;;;;;6291130;28;20052;-64
2023/12/31 07:19:29;;;;;;;78.80;31.92;;;;;;;;;;6291220;28;20045;-64
2023/12/31 07:22:30;;;;;;;77.63;31.45;;;;;;;;;;6287150;28;20078;-64
2023/12/31 07:25:32;;;;;;;77.43;31.00;;;;;;;;;;6289482;28;20400;-65
2023/12/31 07:28:32;;;;;;;73.20;30.42;;;;;;;;;;6290333;28;20047;-64
2023/12/31 07:31:35;;;;;;;73.05;29.30;;;;;;;;;;6289489;28;20048;-64
2023/12/31 07:34:35;;;;;;;71.88;30.55;;;;;;;;;;6290030;28;20079;-65
2023/12/31 07:37:38;;;;;;;78.63;31.00;;;;;;;;;;6290686;28;20040;-65
2023/12/31 07:40:39;;;;;;;78.57;31.45;;;;;;;;;;6291281;28;20051;-65
2023/12/31 07:43:42;;;;;;;74.35;31.13;;;;;;;;;;6288128;28;21425;-63
2023/12/31 07:46:43;;;;;;;82.00;33.42;;;;;;;;;;6291848;28;20055;-64
2023/12/31 07:49:44;;;;;;;77.28;30.30;;;;;;;;;;6290803;28;20052;-63
2023/12/31 07:52:45;;;;;;;81.82;32.58;;;;;;;;;;6289101;28;20086;-63
2023/12/31 07:55:47;;;;;;;82.47;32.83;;;;;;;;;;6289692;28;20533;-61
2023/12/31 07:58:47;;;;;;;93.93;33.97;;;;;;;;;;6291600;28;20048;-66
2023/12/31 08:01:50;;;;;;;102.97;39.47;;;;;;;;;;6288077;28;20125;-62
2023/12/31 08:04:50;;;;;;;116.47;42.50;;;;;;;;;;6288053;28;20075;-65
2023/12/31 08:07:51;;;;;;;92.45;36.47;;;;;;;;;;6291106;28;20153;-66
2023/12/31 08:10:52;;;;;;;93.50;37.65;;;;;;;;;;6290254;28;20044;-62
2023/12/31 08:13:53;;;;;;;155.93;55.67;;;;;;;;;;6287444;28;20053;-61
2023/12/31 08:16:53;;;;;;;131.15;47.08;;;;;;;;;;6290178;28;20055;-66
2023/12/31 08:19:56;;;;;;;119.38;45.55;;;;;;;;;;6287638;28;20060;-66
2023/12/31 08:22:58;;;;;;;175.45;63.45;;;;;;;;;;6287268;28;20131;-67
2023/12/31 08:25:59;;;;;;;136.20;51.58;;;;;;;;;;6270377;28;20053;-63
2023/12/31 08:28:59;;;;;;;118.78;44.92;;;;;;;;;;6291390;28;20044;-68
2023/12/31 08:32:00;;;;;;;163.50;60.35;;;;;;;;;;6277598;28;20810;-59
2023/12/31 08:35:01;;;;;;;168.25;66.93;;;;;;;;;;6287688;28;20131;-60
2023/12/31 08:38:02;;;;;;;158.02;64.80;;;;;;;;;;6283086;28;20074;-59
2023/12/31 08:41:03;;;;;;;149.57;61.42;;;;;;;;;;6278968;28;20045;-60
2023/12/31 08:44:04;;;;;;;137.95;56.20;;;;;;;;;;6289012;28;20044;-62
2023/12/31 08:47:05;;;;;;;154.13;61.33;;;;;;;;;;6290675;28;20048;-69
2023/12/31 08:50:11;;;;;;;154.43;61.58;;;;;;;;;;6287888;28;20438;-68
2023/12/31 08:53:12;;;;;;;194.30;75.70;;;;;;;;;;6278884;28;20052;-67
2023/12/31 08:56:13;;;;;;;162.43;64.80;;;;;;;;;;6290224;28;20147;-64
2023/12/31 08:59:13;;;;;;;133.43;53.38;;;;;;;;;;6290927;28;20407;-62
2023/12/31 09:02:15;;;;;;;130.88;51.40;;;;;;;;;;6289576;28;20075;-63
2023/12/31 09:05:15;;;;;;;124.30;47.65;;;;;;;;;;6285177;28;20495;-63
2023/12/31 09:08:16;;;;;;;152.25;52.72;;;;;;;;;;6282499;28;20406;-61
2023/12/31 09:11:19;;;;;;;159.18;52.47;;;;;;;;;;6279256;28;20049;-67
2023/12/31 09:14:19;;;;;;;128.68;45.47;;;;;;;;;;6287202;28;20395;-67
2023/12/31 09:17:20;;;;;;;121.20;46.03;;;;;;;;;;6281075;28;20051;-64
2023/12/31 09:20:22;;;;;;;140.38;48.30;;;;;;;;;;6283468;28;20412;-61
2023/12/31 09:23:22;;;;;;;125.35;44.50;;;;;;;;;;6285811;28;20056;-61
2023/12/31 09:26:23;;;;;;;126.45;45.47;;;;;;;;;;6290400;28;20048;-65
2023/12/31 09:29:23;;;;;;;126.07;48.45;;;;;;;;;;6290822;28;20395;-65
2023/12/31 09:32:24;;;;;;;118.40;46.95;;;;;;;;;;6275692;28;20475;-66
2023/12/31 09:35:25;;;;;;;94.90;38.88;;;;;;;;;;6282678;28;20110;-64
2023/12/31 09:38:26;;;;;;;98.55;39.85;;;;;;;;;;6280512;28;20127;-64
2023/12/31 09:41:27;;;;;;;100.50;40.40;;;;;;;;;;6289164;28;20492;-63
2023/12/31 09:44:29;;;;;;;128.70;50.97;;;;;;;;;;6287008;28;20415;-63
2023/12/31 09:47:31;;;;;;;100.03;38.83;;;;;;;;;;6290401;28;20052;-63
2023/12/31 09:50:34;;;;;;;102.82;40.60;;;;;;;;;;6287613;28;20082;-63
2023/12/31 09:53:36;;;;;;;83.63;31.70;;;;;;;;;;6288705;28;20045;-63
2023/12/31 09:56:38;;;;;;;81.50;32.63;;;;;;;;;;6289735;28;20063;-67
2023/12/31 09:59:39;;;;;;;85.70;34.47;;;;;;;;;;6289276;28;20032;-69
2023/12/31 10:02:42;;;;;;;84.82;33.63;;;;;;;;;;6280202;28;20048;-69
2023/12/31 10:05:44;;;;;;;87.95;35.25;;;;;;;;;;6277180;28;20057;-63
2023/12/31 10:08:47;;;;;;;95.50;37.97;;;;;;;;;;6289973;28;20384;-62
2023/12/31 10:11:47;;;;;;;102.07;36.75;;;;;;;;;;6286051;28;20512;-65
2023/12/31 10:14:50;;;;;;;110.38;43.40;;;;;;;;;;6291762;28;20336;-63
2023/12/31 10:17:51;;;;;;;100.38;38.47;;;;;;;;;;6290326;28;20079;-63
2023/12/31 10:20:53;;;;;;;98.28;41.15;;;;;;;;;;6285759;28;20143;-62
2023/12/31 10:23:53;;;;;;;85.55;37.83;;;;;;;;;;6288281;28;20411;-61
2023/12/31 10:26:55;;;;;;;99.00;39.63;;;;;;;;;;6285078;28;20044;-64
2023/12/31 10:29:56;;;;;;;105.30;44.83;;;;;;;;;;6292026;28;20056;-61
2023/12/31 10:33:08;;;;;;;101.40;41.58;;;;;;;;;;6285971;28;20475;-65
2023/12/31 10:36:10;;;;;;;106.18;39.25;;;;;;;;;;6281586;28;20135;-63
2023/12/31 10:39:25;;;;;;;118.30;47.38;;;;;;;;;;6294667;28;20151;-62
2023/12/31 10:42:26;;;;;;;93.63;37.22;;;;;;;;;;6294399;28;20098;-64
2023/12/31 10:45:31;;;;;;;99.18;36.20;;;;;;;;;;6291782;28;20053;-62
2023/12/31 10:48:33;;;;;;;142.63;48.60;;;;;;;;;;6294058;28;20064;-68
2023/12/31 10:51:38;;;;;;;74.95;27.10;;;;;;;;;;6293411;28;20055;-67
2023/12/31 10:54:44;;;;;;;63.72;24.33;;;;;;;;;;6293363;28;20385;-68
2023/12/31 10:57:46;;;;;;;58.75;23.17;;;;;;;;;;6292829;28;20080;-64
2023/12/31 11:00:47;;;;;;;50.25;22.10;;;;;;;;;;6293980;28;20105;-62
2023/12/31 11:03:48;;;;;;;47.97;19.65;;;;;;;;;;6294737;28;20053;-63
2023/12/31 11:06:49;;;;;;;57.67;20.60;;;;;;;;;;6289876;28;20411;-65
2023/12/31 11:09:51;;;;;;;52.37;21.83;;;;;;;;;;6297173;28;20131;-64
2023/12/31 11:12:52;;;;;;;57.38;21.45;;;;;;;;;;6299446;28;20076;-65
2023/12/31 11:15:55;;;;;;;65.60;24.77;;;;;;;;;;6292038;28;20056;-63
2023/12/31 11:19:18;;;;;;;75.45;27.00;;;;;;;;;;6293196;28;20083;-63
2023/12/31 11:22:44;;;;;;;74.78;28.42;;;;;;;;;;6293510;28;20059;-69
2023/12/31 11:25:46;;;;;;;83.10;29.00;;;;;;;;;;6282713;28;20052;-60
2023/12/31 11:28:48;;;;;;;90.23;30.57;;;;;;;;;;6291516;28;20048;-60
2023/12/31 11:31:49;;;;;;;77.65;28.67;;;;;;;;;;6292685;28;20131;-62
2023/12/31 11:34:54;;;;;;;70.63;27.00;;;;;;;;;;6283695;28;20040;-61
2023/12/31 11:37:54;;;;;;;84.28;31.38;;;;;;;;;;6290279;28;20076;-61
2023/12/31 11:40:55;;;;;;;74.43;27.45;;;;;;;;;;6290926;28;20156;-64
2023/12/31 11:43:56;;;;;;;60.55;24.02;;;;;;;;;;6291442;28;20041;-65
2023/12/31 11:46:58;;;;;;;66.32;25.48;;;;;;;;;;6292923;28;20041;-61
2023/12/31 11:49:59;;;;;;;70.32;27.05;;;;;;;;;;6290790;28;20480;-64
2023/12/31 11:52:59;;;;;;;71.93;26.00;;;;;;;;;;6292322;28;20112;-63
2023/12/31 11:56:01;;;;;;;65.00;26.73;;;;;;;;;;6198875;28;20111;-63
2023/12/31 11:59:02;;;;;;;62.58;25.27;;;;;;;;;;6180015;28;20077;-63
2023/12/31 12:02:05;;;;;;;57.30;23.92;;;;;;;;;;6240994;28;20055;-63
2023/12/31 12:05:06;;;;;;;67.57;26.05;;;;;;;;;;6292158;28;20144;-64
2023/12/31 12:08:10;;;;;;;65.30;24.98;;;;;;;;;;6278391;28;20052;-63
2023/12/31 12:11:11;;;;;;;63.28;24.27;;;;;;;;;;6291097;28;20049;-62
2023/12/31 12:14:12;;;;;;;58.38;23.58;;;;;;;;;;6292153;28;20068;-63
2023/12/31 12:17:13;;;;;;;69.13;25.42;;;;;;;;;;6283627;28;20101;-64
2023/12/31 12:20:13;;;;;;;58.10;22.63;;;;;;;;;;6290433;28;20585;-63
2023/12/31 12:23:21;;;;;;;57.33;21.52;;;;;;;;;;6291619;28;20483;-65
2023/12/31 12:26:22;;;;;;;58.70;21.48;;;;;;;;;;6292200;28;20055;-63
2023/12/31 12:29:23;;;;;;;63.37;23.67;;;;;;;;;;6290394;28;20053;-63
2023/12/31 12:32:25;;;;;;;59.03;21.52;;;;;;;;;;6291235;28;20411;-61
2023/12/31 12:35:28;;;;;;;55.10;20.95;;;;;;;;;;6291202;28;20043;-63
2023/12/31 12:38:28;;;;;;;64.25;24.42;;;;;;;;;;6291769;28;20059;-62
2023/12/31 12:41:32;;;;;;;65.07;23.63;;;;;;;;;;6277212;28;20051;-62
2023/12/31 12:44:34;;;;;;;73.10;26.30;;;;;;;;;;6286768;28;20052;-61
2023/12/31 12:47:35;;;;;;;62.55;25.25;;;;;;;;;;6280409;28;20067;-62
2023/12/31 12:50:36;;;;;;;69.28;24.88;;;;;;;;;;6278565;28;20044;-64
2023/12/31 12:53:37;;;;;;;63.03;24.42;;;;;;;;;;6272343;28;20049;-61
2023/12/31 12:56:38;;;;;;;104.10;46.47;;;;;;;;;;6274499;28;20395;-62
2023/12/31 12:59:39;;;;;;;65.32;24.80;;;;;;;;;;6280201;28;20040;-63
2023/12/31 13:02:40;;;;;;;66.88;26.80;;;;;;;;;;6283014;28;20078;-63
2023/12/31 13:05:41;;;;;;;66.75;28.10;;;;;;;;;;6284761;28;20048;-64
2023/12/31 13:08:42;;;;;;;79.80;31.55;;;;;;;;;;6283238;28;20483;-62
2023/12/31 13:11:43;;;;;;;85.85;33.65;;;;;;;;;;6278958;28;20764;-62
2023/12/31 13:14:44;;;;;;;86.75;35.45;;;;;;;;;;6281742;28;20064;-63
2023/12/31 13:17:45;;;;;;;85.07;35.43;;;;;;;;;;6275263;28;20059;-62
2023/12/31 13:20:47;;;;;;;79.95;34.42;;;;;;;;;;6283232;28;20053;-64
2023/12/31 13:23:48;;;;;;;81.07;33.20;;;;;;;;;;6282592;28;20045;-62
2023/12/31 13:26:49;;;;;;;88.07;33.05;;;;;;;;;;6281188;28;20484;-65
2023/12/31 13:29:50;;;;;;;89.90;33.75;;;;;;;;;;6279989;28;20823;-63
2023/12/31 13:32:50;;;;;;;86.25;33.38;;;;;;;;;;6292184;28;20055;-64
2023/12/31 13:35:51;;;;;;;74.57;30.70;;;;;;;;;;6273795;28;20056;-65
2023/12/31 13:38:52;;;;;;;64.68;26.73;;;;;;;;;;6279975;28;20053;-65
2023/12/31 13:41:53;;;;;;;73.57;30.70;;;;;;;;;;6285884;28;20136;-65
2023/12/31 13:44:53;;;;;;;75.88;31.70;;;;;;;;;;6272958;28;20071;-63
2023/12/31 13:47:55;;;;;;;71.40;29.45;;;;;;;;;;6281087;28;20479;-63
2023/12/31 13:50:56;;;;;;;67.35;29.00;;;;;;;;;;6279936;28;20051;-63
2023/12/31 13:53:57;;;;;;;78.75;32.90;;;;;;;;;;6286348;28;20067;-62
2023/12/31 13:56:58;;;;;;;79.07;33.03;;;;;;;;;;6279922;28;20593;-62
2023/12/31 13:59:59;;;;;;;80.07;32.45;;;;;;;;;;6271452;28;20552;-63
2023/12/31 14:02:59;;;;;;;81.32;33.60;;;;;;;;;;6283048;28;20090;-62
2023/12/31 14:06:00;;;;;;;84.63;32.38;;;;;;;;;;6283572;28;20151;-61
2023/12/31 14:09:01;;;;;;;80.00;32.83;;;;;;;;;;6281763;28;20143;-65
2023/12/31 14:12:05;;;;;;;84.55;33.00;;;;;;;;;;6287531;28;20068;-64
2023/12/31 14:15:06;;;;;;;91.20;36.80;;;;;;;;;;6284568;28;20411;-64
2023/12/31 14:18:07;;;;;;;;;;;;;;;;;;6282476;28;20051;-64
2023/12/31 14:21:08;;;;;;;103.40;42.33;;;;;;;;;;6288583;28;19924;-65
2023/12/31 14:24:10;;;;;;;102.45;40.92;;;;;;;;;;6290076;28;20049;-64
2023/12/31 14:27:11;;;;;;;110.20;42.53;;;;;;;;;;6279762;28;20044;-64
2023/12/31 14:30:12;;;;;;;111.43;44.50;;;;;;;;;;6283760;28;20048;-62
2023/12/31 14:33:13;;;;;;;131.30;51.50;;;;;;;;;;6288823;28;20060;-62
2023/12/31 14:36:13;;;;;;;102.18;40.97;;;;;;;;;;6286238;28;20056;-62
2023/12/31 14:39:15;;;;;;;138.77;54.83;;;;;;;;;;6296935;28;20506;-63
2023/12/31 14:42:17;;;;;;;162.43;63.55;;;;;;;;;;6291516;28;20044;-62
2023/12/31 14:45:20;;;;;;;112.68;46.78;;;;;;;;;;6276036;28;21028;-64
2023/12/31 14:48:21;;;;;;;;;;;;;;;;;;6278687;28;20402;-65
2023/12/31 14:51:21;;;;;;;80.53;32.70;;;;;;;;;;6264466;28;19929;-65
2023/12/31 14:54:22;;;;;;;76.38;29.60;;;;;;;;;;6272039;28;20139;-65
2023/12/31 14:57:23;;;;;;;73.63;30.00;;;;;;;;;;6267265;28;20419;-66
2023/12/31 15:00:23;;;;;;;83.25;34.55;;;;;;;;;;6274422;28;20049;-65
2023/12/31 15:03:25;;;;;;;106.68;42.95;;;;;;;;;;6263145;28;20071;-64
2023/12/31 15:06:26;;;;;;;120.28;47.60;;;;;;;;;;6276232;28;20063;-66
2023/12/31 15:09:27;;;;;;;118.45;46.42;;;;;;;;;;6274251;28;20083;-62
2023/12/31 15:12:28;;;;;;;106.07;43.83;;;;;;;;;;6274333;28;20069;-62
2023/12/31 15:15:28;;;;;;;98.20;36.97;;;;;;;;;;6265639;28;20048;-64
2023/12/31 15:18:30;;;;;;;101.38;35.17;;;;;;;;;;6266788;28;20048;-63
2023/12/31 15:21:31;;;;;;;93.40;34.03;;;;;;;;;;6272491;28;20583;-63
2023/12/31 15:24:32;;;;;;;103.95;34.42;;;;;;;;;;6272450;28;20090;-63
2023/12/31 15:27:33;;;;;;;94.13;32.08;;;;;;;;;;6271959;28;20079;-63
2023/12/31 15:30:34;;;;;;;114.47;43.75;;;;;;;;;;6276796;28;20496;-63
2023/12/31 15:33:36;;;;;;;131.63;45.22;;;;;;;;;;6269711;28;20087;-62
2023/12/31 15:36:37;;;;;;;130.47;46.47;;;;;;;;;;6272310;28;20048;-62
2023/12/31 15:39:40;;;;;;;142.40;51.03;;;;;;;;;;6270959;28;20102;-64
2023/12/31 15:42:41;;;;;;;117.35;42.17;;;;;;;;;;6271146;28;20044;-65
2023/12/31 15:45:42;;;;;;;116.88;42.85;;;;;;;;;;6276551;28;20254;-65
2023/12/31 15:48:43;;;;;;;144.93;52.95;;;;;;;;;;6268147;28;20057;-65
2023/12/31 15:51:43;;;;;;;136.80;47.50;;;;;;;;;;6270275;28;20063;-65
2023/12/31 15:54:44;;;;;;;110.30;40.65;;;;;;;;;;6282079;28;20049;-65
2023/12/31 15:57:45;;;;;;;129.80;44.45;;;;;;;;;;6267759;28;20052;-69
2023/12/31 16:00:46;;;;;;;117.57;43.15;;;;;;;;;;6276077;28;20059;-68
2023/12/31 16:03:47;;;;;;;120.10;40.88;;;;;;;;;;6276281;28;20476;-67
2023/12/31 16:06:51;;;;;;;122.97;43.20;;;;;;;;;;6271265;28;20537;-65
2023/12/31 16:09:52;;;;;;;128.35;49.28;;;;;;;;;;6266338;28;20053;-67
2023/12/31 16:12:52;;;;;;;134.02;47.40;;;;;;;;;;6270710;28;20047;-66
2023/12/31 16:15:53;;;;;;;124.05;46.92;;;;;;;;;;6270348;28;20484;-67
2023/12/31 16:18:54;;;;;;;125.70;48.17;;;;;;;;;;6265909;28;20076;-68
2023/12/31 16:21:54;;;;;;;130.68;53.10;;;;;;;;;;6265509;28;20052;-66
2023/12/31 16:24:55;;;;;;;137.63;52.22;;;;;;;;;;6267289;28;20602;-66
2023/12/31 16:27:56;;;;;;;128.45;51.88;;;;;;;;;;6272316;28;20049;-63
2023/12/31 16:30:57;;;;;;;115.53;46.53;;;;;;;;;;6272482;28;20084;-63
2023/12/31 16:33:58;;;;;;;117.80;46.53;;;;;;;;;;6270917;28;20480;-65
2023/12/31 16:36:58;;;;;;;112.75;47.80;;;;;;;;;;6275970;28;20054;-63
2023/12/31 16:39:59;;;;;;;123.38;49.08;;;;;;;;;;6266218;28;20420;-67
2023/12/31 16:43:04;;;;;;;123.55;49.42;;;;;;;;;;6268709;28;20066;-66
2023/12/31 16:46:05;;;;;;;120.63;48.35;;;;;;;;;;6269069;28;20075;-66
2023/12/31 16:49:07;;;;;;;127.97;52.85;;;;;;;;;;6271991;28;20044;-67
2023/12/31 16:52:07;;;;;;;143.80;54.50;;;;;;;;;;6280926;28;20419;-66
2023/12/31 16:55:09;;;;;;;140.45;54.45;;;;;;;;;;6293291;28;20075;-67
2023/12/31 16:58:10;;;;;;;142.43;54.80;;;;;;;;;;6290841;28;20119;-65
2023/12/31 17:01:11;;;;;;;138.25;52.05;;;;;;;;;;6307356;28;20400;-66
2023/12/31 17:04:11;;;;;;;125.82;48.67;;;;;;;;;;6298847;28;20057;-66
2023/12/31 17:07:16;;;;;;;127.07;49.17;;;;;;;;;;6288602;28;20060;-67
2023/12/31 17:10:17;;;;;;;131.77;51.88;;;;;;;;;;6295910;28;20051;-66
2023/12/31 17:13:18;;;;;;;141.48;54.53;;;;;;;;;;6298939;28;20047;-66
2023/12/31 17:16:19;;;;;;;123.75;50.05;;;;;;;;;;6299593;28;20377;-67
2023/12/31 17:19:20;;;;;;;128.38;49.95;;;;;;;;;;6272466;28;20135;-67
2023/12/31 17:22:20;;;;;;;133.75;51.58;;;;;;;;;;6294588;28;20059;-66
2023/12/31 17:25:22;;;;;;;147.73;53.15;;;;;;;;;;6296642;28;20134;-66
2023/12/31 17:28:26;;;;;;;152.57;53.50;;;;;;;;;;6292950;28;20052;-67
2023/12/31 17:31:27;;;;;;;166.15;55.45;;;;;;;;;;6291162;28;20422;-67